sensor_id;sensor_type;location;lat;lon;timestamp;P1;durP1;ratioP1;P2;durP2;ratioP2
75154;SDS011;63735;44.730;37.818;2023-05-15T00:02:03;10.00;;;3.15;;
75154;SDS011;63735;44.730;37.818;2023-05-15T00:04:30;13.10;;;4.10;;
75154;SDS011;63735;44.730;37.818;2023-05-15T00:06:56;10.32;;;4.05;;
75154;SDS011;63735;44.730;37.818;2023-05-15T00:09:22;8.43;;;3.90;;
75154;SDS011;63735;44.730;37.818;2023-05-15T00:11:48;13.05;;;4.13;;
75154;SDS011;63735;44.730;37.818;2023-05-15T00:14:14;9.60;;;4.30;;
75154;SDS011;63735;44.730;37.818;2023-05-15T00:16:40;10.63;;;4.13;;
75154;SDS011;63735;44.730;37.818;2023-05-15T00:19:06;6.97;;;3.67;;
75154;SDS011;63735;44.730;37.818;2023-05-15T00:21:32;11.98;;;4.18;;
75154;SDS011;63735;44.730;37.818;2023-05-15T00:23:58;9.48;;;2.78;;
75154;SDS011;63735;44.730;37.818;2023-05-15T00:26:24;10.80;;;3.35;;
75154;SDS011;63735;44.730;37.818;2023-05-15T00:28:50;7.15;;;3.28;;
75154;SDS011;63735;44.730;37.818;2023-05-15T00:31:16;11.15;;;3.35;;
75154;SDS011;63735;44.730;37.818;2023-05-15T00:33:42;13.30;;;3.63;;
75154;SDS011;63735;44.730;37.818;2023-05-15T00:36:08;18.27;;;4.07;;
75154;SDS011;63735;44.730;37.818;2023-05-15T00:38:34;9.80;;;4.07;;
75154;SDS011;63735;44.730;37.818;2023-05-15T00:41:02;14.50;;;3.78;;
75154;SDS011;63735;44.730;37.818;2023-05-15T00:43:29;8.85;;;3.75;;
75154;SDS011;63735;44.730;37.818;2023-05-15T00:45:56;10.20;;;3.33;;
75154;SDS011;63735;44.730;37.818;2023-05-15T00:48:24;12.25;;;4.03;;
75154;SDS011;63735;44.730;37.818;2023-05-15T00:50:52;7.43;;;3.42;;
75154;SDS011;63735;44.730;37.818;2023-05-15T00:53:18;6.13;;;3.03;;
75154;SDS011;63735;44.730;37.818;2023-05-15T00:55:46;7.78;;;3.10;;
75154;SDS011;63735;44.730;37.818;2023-05-15T00:58:16;7.47;;;3.70;;
75154;SDS011;63735;44.730;37.818;2023-05-15T01:00:45;7.68;;;3.20;;
75154;SDS011;63735;44.730;37.818;2023-05-15T01:03:15;8.63;;;3.15;;
75154;SDS011;63735;44.730;37.818;2023-05-15T01:05:42;5.55;;;3.22;;
75154;SDS011;63735;44.730;37.818;2023-05-15T01:08:15;10.00;;;3.55;;
75154;SDS011;63735;44.730;37.818;2023-05-15T01:10:47;11.13;;;4.75;;
75154;SDS011;63735;44.730;37.818;2023-05-15T01:13:18;7.60;;;3.88;;
75154;SDS011;63735;44.730;37.818;2023-05-15T01:15:46;12.90;;;4.05;;
75154;SDS011;63735;44.730;37.818;2023-05-15T01:18:13;13.43;;;4.25;;
75154;SDS011;63735;44.730;37.818;2023-05-15T01:23:19;17.38;;;4.22;;
75154;SDS011;63735;44.730;37.818;2023-05-15T01:28:50;14.30;;;4.00;;
75154;SDS011;63735;44.730;37.818;2023-05-15T01:33:53;15.68;;;3.70;;
75154;SDS011;63735;44.730;37.818;2023-05-15T01:39:11;11.18;;;3.75;;
75154;SDS011;63735;44.730;37.818;2023-05-15T01:41:48;13.57;;;3.17;;
75154;SDS011;63735;44.730;37.818;2023-05-15T01:44:45;7.22;;;3.80;;
75154;SDS011;63735;44.730;37.818;2023-05-15T01:47:18;11.50;;;4.20;;
75154;SDS011;63735;44.730;37.818;2023-05-15T01:49:49;16.38;;;4.47;;
75154;SDS011;63735;44.730;37.818;2023-05-15T01:52:34;12.57;;;5.03;;
75154;SDS011;63735;44.730;37.818;2023-05-15T01:55:04;7.38;;;4.05;;
75154;SDS011;63735;44.730;37.818;2023-05-15T01:57:32;15.40;;;4.00;;
75154;SDS011;63735;44.730;37.818;2023-05-15T02:00:00;14.10;;;4.60;;
75154;SDS011;63735;44.730;37.818;2023-05-15T02:02:28;20.75;;;5.55;;
75154;SDS011;63735;44.730;37.818;2023-05-15T02:04:55;15.60;;;5.60;;
75154;SDS011;63735;44.730;37.818;2023-05-15T02:07:22;13.15;;;4.20;;
75154;SDS011;63735;44.730;37.818;2023-05-15T02:09:52;15.52;;;4.13;;
75154;SDS011;63735;44.730;37.818;2023-05-15T02:12:20;22.20;;;4.38;;
75154;SDS011;63735;44.730;37.818;2023-05-15T02:14:47;18.48;;;3.90;;
75154;SDS011;63735;44.730;37.818;2023-05-15T02:17:14;14.02;;;3.97;;
75154;SDS011;63735;44.730;37.818;2023-05-15T02:19:41;22.00;;;4.78;;
75154;SDS011;63735;44.730;37.818;2023-05-15T02:22:08;14.15;;;4.13;;
75154;SDS011;63735;44.730;37.818;2023-05-15T02:24:34;23.88;;;4.65;;
75154;SDS011;63735;44.730;37.818;2023-05-15T02:27:04;15.02;;;5.78;;
75154;SDS011;63735;44.730;37.818;2023-05-15T02:37:47;10.65;;;3.92;;
75154;SDS011;63735;44.730;37.818;2023-05-15T02:40:16;9.45;;;4.25;;
75154;SDS011;63735;44.730;37.818;2023-05-15T02:42:45;7.70;;;3.20;;
75154;SDS011;63735;44.730;37.818;2023-05-15T02:45:12;8.05;;;3.72;;
75154;SDS011;63735;44.730;37.818;2023-05-15T02:47:38;6.93;;;4.07;;
75154;SDS011;63735;44.730;37.818;2023-05-15T02:50:05;8.95;;;3.97;;
75154;SDS011;63735;44.730;37.818;2023-05-15T02:52:32;10.02;;;3.17;;
75154;SDS011;63735;44.730;37.818;2023-05-15T02:54:59;9.15;;;3.97;;
75154;SDS011;63735;44.730;37.818;2023-05-15T02:57:26;10.10;;;4.50;;
75154;SDS011;63735;44.730;37.818;2023-05-15T02:59:52;11.73;;;4.90;;
75154;SDS011;63735;44.730;37.818;2023-05-15T03:02:20;11.52;;;3.95;;
75154;SDS011;63735;44.730;37.818;2023-05-15T03:04:46;13.38;;;4.07;;
75154;SDS011;63735;44.730;37.818;2023-05-15T03:07:12;12.50;;;4.10;;
75154;SDS011;63735;44.730;37.818;2023-05-15T03:09:39;9.30;;;3.70;;
75154;SDS011;63735;44.730;37.818;2023-05-15T03:12:05;10.40;;;3.80;;
75154;SDS011;63735;44.730;37.818;2023-05-15T03:14:32;7.38;;;3.63;;
75154;SDS011;63735;44.730;37.818;2023-05-15T03:17:00;6.43;;;3.60;;
75154;SDS011;63735;44.730;37.818;2023-05-15T03:19:26;10.05;;;3.90;;
75154;SDS011;63735;44.730;37.818;2023-05-15T03:21:52;11.90;;;3.63;;
75154;SDS011;63735;44.730;37.818;2023-05-15T03:24:18;12.98;;;3.55;;
75154;SDS011;63735;44.730;37.818;2023-05-15T03:26:44;11.20;;;3.72;;
75154;SDS011;63735;44.730;37.818;2023-05-15T03:29:10;8.07;;;3.60;;
75154;SDS011;63735;44.730;37.818;2023-05-15T03:31:36;10.98;;;4.03;;
75154;SDS011;63735;44.730;37.818;2023-05-15T03:34:02;12.82;;;3.95;;
75154;SDS011;63735;44.730;37.818;2023-05-15T03:36:27;12.48;;;4.00;;
75154;SDS011;63735;44.730;37.818;2023-05-15T03:38:53;11.70;;;4.35;;
75154;SDS011;63735;44.730;37.818;2023-05-15T03:41:20;14.50;;;4.13;;
75154;SDS011;63735;44.730;37.818;2023-05-15T03:43:46;14.80;;;3.85;;
75154;SDS011;63735;44.730;37.818;2023-05-15T03:46:15;16.38;;;4.40;;
75154;SDS011;63735;44.730;37.818;2023-05-15T03:48:41;14.10;;;4.00;;
75154;SDS011;63735;44.730;37.818;2023-05-15T03:51:07;9.68;;;3.20;;
75154;SDS011;63735;44.730;37.818;2023-05-15T03:53:33;15.77;;;4.75;;
75154;SDS011;63735;44.730;37.818;2023-05-15T03:55:59;14.98;;;4.60;;
75154;SDS011;63735;44.730;37.818;2023-05-15T03:58:25;15.60;;;5.05;;
75154;SDS011;63735;44.730;37.818;2023-05-15T04:00:51;11.57;;;3.72;;
75154;SDS011;63735;44.730;37.818;2023-05-15T04:03:17;7.93;;;4.10;;
75154;SDS011;63735;44.730;37.818;2023-05-15T04:05:44;7.50;;;4.10;;
75154;SDS011;63735;44.730;37.818;2023-05-15T04:08:14;15.93;;;4.72;;
75154;SDS011;63735;44.730;37.818;2023-05-15T04:10:40;5.85;;;3.17;;
75154;SDS011;63735;44.730;37.818;2023-05-15T04:13:06;6.10;;;3.22;;
75154;SDS011;63735;44.730;37.818;2023-05-15T04:15:32;10.77;;;3.47;;
75154;SDS011;63735;44.730;37.818;2023-05-15T04:17:59;14.05;;;3.88;;
75154;SDS011;63735;44.730;37.818;2023-05-15T04:20:25;7.40;;;3.58;;
75154;SDS011;63735;44.730;37.818;2023-05-15T04:22:51;17.17;;;4.82;;
75154;SDS011;63735;44.730;37.818;2023-05-15T04:25:18;10.27;;;3.25;;
75154;SDS011;63735;44.730;37.818;2023-05-15T04:27:44;5.05;;;2.92;;
75154;SDS011;63735;44.730;37.818;2023-05-15T04:30:10;10.52;;;3.60;;
75154;SDS011;63735;44.730;37.818;2023-05-15T04:32:38;15.43;;;3.47;;
75154;SDS011;63735;44.730;37.818;2023-05-15T04:35:04;14.48;;;3.97;;
75154;SDS011;63735;44.730;37.818;2023-05-15T04:37:34;9.43;;;3.30;;
75154;SDS011;63735;44.730;37.818;2023-05-15T04:40:01;13.00;;;3.67;;
75154;SDS011;63735;44.730;37.818;2023-05-15T04:42:27;10.02;;;3.72;;
75154;SDS011;63735;44.730;37.818;2023-05-15T04:44:53;11.63;;;4.07;;
75154;SDS011;63735;44.730;37.818;2023-05-15T04:47:19;10.52;;;4.53;;
75154;SDS011;63735;44.730;37.818;2023-05-15T04:49:45;14.80;;;4.10;;
75154;SDS011;63735;44.730;37.818;2023-05-15T04:52:14;11.50;;;3.95;;
75154;SDS011;63735;44.730;37.818;2023-05-15T04:54:41;16.70;;;4.10;;
75154;SDS011;63735;44.730;37.818;2023-05-15T04:57:07;9.90;;;3.60;;
75154;SDS011;63735;44.730;37.818;2023-05-15T04:59:33;7.07;;;3.40;;
75154;SDS011;63735;44.730;37.818;2023-05-15T05:02:00;12.13;;;3.67;;
75154;SDS011;63735;44.730;37.818;2023-05-15T05:04:26;11.73;;;4.05;;
75154;SDS011;63735;44.730;37.818;2023-05-15T05:06:52;18.40;;;3.55;;
75154;SDS011;63735;44.730;37.818;2023-05-15T05:09:18;22.75;;;4.13;;
75154;SDS011;63735;44.730;37.818;2023-05-15T05:11:45;8.90;;;3.45;;
75154;SDS011;63735;44.730;37.818;2023-05-15T05:14:12;13.50;;;3.67;;
75154;SDS011;63735;44.730;37.818;2023-05-15T05:16:39;8.40;;;3.92;;
75154;SDS011;63735;44.730;37.818;2023-05-15T05:19:05;10.57;;;4.10;;
75154;SDS011;63735;44.730;37.818;2023-05-15T05:21:31;11.82;;;2.40;;
75154;SDS011;63735;44.730;37.818;2023-05-15T05:23:57;8.60;;;3.67;;
75154;SDS011;63735;44.730;37.818;2023-05-15T05:26:24;8.95;;;3.55;;
75154;SDS011;63735;44.730;37.818;2023-05-15T05:28:51;9.65;;;4.05;;
75154;SDS011;63735;44.730;37.818;2023-05-15T05:31:17;12.98;;;4.20;;
75154;SDS011;63735;44.730;37.818;2023-05-15T05:33:44;6.40;;;3.00;;
75154;SDS011;63735;44.730;37.818;2023-05-15T05:36:10;12.27;;;4.38;;
75154;SDS011;63735;44.730;37.818;2023-05-15T05:38:36;9.60;;;4.03;;
75154;SDS011;63735;44.730;37.818;2023-05-15T05:41:02;12.80;;;4.03;;
75154;SDS011;63735;44.730;37.818;2023-05-15T05:43:30;13.25;;;4.03;;
75154;SDS011;63735;44.730;37.818;2023-05-15T05:45:56;5.50;;;3.30;;
75154;SDS011;63735;44.730;37.818;2023-05-15T05:48:21;9.23;;;3.35;;
75154;SDS011;63735;44.730;37.818;2023-05-15T05:50:47;11.15;;;3.22;;
75154;SDS011;63735;44.730;37.818;2023-05-15T05:53:13;7.50;;;4.05;;
75154;SDS011;63735;44.730;37.818;2023-05-15T05:55:39;7.15;;;3.45;;
75154;SDS011;63735;44.730;37.818;2023-05-15T05:58:05;7.47;;;3.50;;
75154;SDS011;63735;44.730;37.818;2023-05-15T06:00:31;7.65;;;4.18;;
75154;SDS011;63735;44.730;37.818;2023-05-15T06:02:57;7.38;;;3.63;;
75154;SDS011;63735;44.730;37.818;2023-05-15T06:05:27;10.05;;;4.70;;
75154;SDS011;63735;44.730;37.818;2023-05-15T06:07:53;9.00;;;3.70;;
75154;SDS011;63735;44.730;37.818;2023-05-15T06:10:19;9.63;;;3.05;;
75154;SDS011;63735;44.730;37.818;2023-05-15T06:12:46;9.48;;;3.55;;
75154;SDS011;63735;44.730;37.818;2023-05-15T06:15:13;6.28;;;3.60;;
75154;SDS011;63735;44.730;37.818;2023-05-15T06:17:41;5.18;;;3.17;;
75154;SDS011;63735;44.730;37.818;2023-05-15T06:20:07;9.70;;;3.97;;
75154;SDS011;63735;44.730;37.818;2023-05-15T06:25:03;7.70;;;2.58;;
75154;SDS011;63735;44.730;37.818;2023-05-15T06:27:31;12.00;;;4.07;;
75154;SDS011;63735;44.730;37.818;2023-05-15T06:29:57;11.48;;;4.47;;
75154;SDS011;63735;44.730;37.818;2023-05-15T06:32:23;10.73;;;3.95;;
75154;SDS011;63735;44.730;37.818;2023-05-15T06:34:49;7.43;;;3.90;;
75154;SDS011;63735;44.730;37.818;2023-05-15T06:37:15;15.88;;;4.35;;
75154;SDS011;63735;44.730;37.818;2023-05-15T06:39:42;11.68;;;4.50;;
75154;SDS011;63735;44.730;37.818;2023-05-15T06:42:08;8.00;;;3.25;;
75154;SDS011;63735;44.730;37.818;2023-05-15T06:44:34;5.90;;;3.00;;
75154;SDS011;63735;44.730;37.818;2023-05-15T06:47:00;12.57;;;3.22;;
75154;SDS011;63735;44.730;37.818;2023-05-15T06:49:26;7.43;;;3.40;;
75154;SDS011;63735;44.730;37.818;2023-05-15T06:51:52;9.93;;;3.42;;
75154;SDS011;63735;44.730;37.818;2023-05-15T06:54:19;15.63;;;4.07;;
75154;SDS011;63735;44.730;37.818;2023-05-15T06:56:45;20.35;;;4.13;;
75154;SDS011;63735;44.730;37.818;2023-05-15T06:59:11;8.07;;;3.83;;
75154;SDS011;63735;44.730;37.818;2023-05-15T07:01:37;14.20;;;7.18;;
75154;SDS011;63735;44.730;37.818;2023-05-15T07:04:03;16.77;;;6.45;;
75154;SDS011;63735;44.730;37.818;2023-05-15T07:06:29;11.48;;;7.75;;
75154;SDS011;63735;44.730;37.818;2023-05-15T07:08:56;9.82;;;4.00;;
75154;SDS011;63735;44.730;37.818;2023-05-15T07:11:23;14.00;;;4.50;;
75154;SDS011;63735;44.730;37.818;2023-05-15T07:13:50;12.88;;;3.65;;
75154;SDS011;63735;44.730;37.818;2023-05-15T07:16:17;7.20;;;3.97;;
75154;SDS011;63735;44.730;37.818;2023-05-15T07:18:43;4.60;;;2.88;;
75154;SDS011;63735;44.730;37.818;2023-05-15T07:21:08;8.32;;;3.65;;
75154;SDS011;63735;44.730;37.818;2023-05-15T07:23:34;17.13;;;5.05;;
75154;SDS011;63735;44.730;37.818;2023-05-15T07:26:00;8.07;;;3.22;;
75154;SDS011;63735;44.730;37.818;2023-05-15T07:28:26;9.88;;;3.25;;
75154;SDS011;63735;44.730;37.818;2023-05-15T07:30:52;6.40;;;3.50;;
75154;SDS011;63735;44.730;37.818;2023-05-15T07:33:18;6.13;;;2.65;;
75154;SDS011;63735;44.730;37.818;2023-05-15T07:35:44;8.80;;;2.45;;
75154;SDS011;63735;44.730;37.818;2023-05-15T07:38:10;8.30;;;2.90;;
75154;SDS011;63735;44.730;37.818;2023-05-15T07:40:36;4.55;;;2.35;;
75154;SDS011;63735;44.730;37.818;2023-05-15T07:43:02;12.90;;;3.25;;
75154;SDS011;63735;44.730;37.818;2023-05-15T07:45:27;6.35;;;2.80;;
75154;SDS011;63735;44.730;37.818;2023-05-15T07:47:53;6.30;;;2.78;;
75154;SDS011;63735;44.730;37.818;2023-05-15T07:50:19;9.98;;;2.72;;
75154;SDS011;63735;44.730;37.818;2023-05-15T07:52:45;3.70;;;2.20;;
75154;SDS011;63735;44.730;37.818;2023-05-15T07:55:11;5.55;;;2.65;;
75154;SDS011;63735;44.730;37.818;2023-05-15T07:57:38;3.70;;;2.40;;
75154;SDS011;63735;44.730;37.818;2023-05-15T08:00:07;11.48;;;3.85;;
75154;SDS011;63735;44.730;37.818;2023-05-15T08:02:38;5.82;;;3.78;;
75154;SDS011;63735;44.730;37.818;2023-05-15T08:05:04;9.18;;;6.25;;
75154;SDS011;63735;44.730;37.818;2023-05-15T08:07:31;8.90;;;4.35;;
75154;SDS011;63735;44.730;37.818;2023-05-15T08:09:58;12.50;;;4.43;;
75154;SDS011;63735;44.730;37.818;2023-05-15T08:12:24;3.33;;;2.38;;
75154;SDS011;63735;44.730;37.818;2023-05-15T08:14:51;6.72;;;3.13;;
75154;SDS011;63735;44.730;37.818;2023-05-15T08:17:19;10.90;;;2.83;;
75154;SDS011;63735;44.730;37.818;2023-05-15T08:19:46;8.77;;;3.17;;
75154;SDS011;63735;44.730;37.818;2023-05-15T08:22:12;4.80;;;2.90;;
75154;SDS011;63735;44.730;37.818;2023-05-15T08:24:39;5.15;;;2.67;;
75154;SDS011;63735;44.730;37.818;2023-05-15T08:27:06;6.40;;;2.58;;
75154;SDS011;63735;44.730;37.818;2023-05-15T08:29:33;10.05;;;3.88;;
75154;SDS011;63735;44.730;37.818;2023-05-15T08:31:59;11.00;;;5.13;;
75154;SDS011;63735;44.730;37.818;2023-05-15T08:34:26;10.82;;;4.80;;
75154;SDS011;63735;44.730;37.818;2023-05-15T08:36:52;7.80;;;3.80;;
75154;SDS011;63735;44.730;37.818;2023-05-15T08:39:18;8.15;;;4.40;;
75154;SDS011;63735;44.730;37.818;2023-05-15T08:41:57;11.20;;;3.60;;
75154;SDS011;63735;44.730;37.818;2023-05-15T08:44:45;7.65;;;3.38;;
75154;SDS011;63735;44.730;37.818;2023-05-15T08:47:13;11.30;;;4.25;;
75154;SDS011;63735;44.730;37.818;2023-05-15T08:52:15;7.45;;;5.07;;
75154;SDS011;63735;44.730;37.818;2023-05-15T08:54:42;7.75;;;3.25;;
75154;SDS011;63735;44.730;37.818;2023-05-15T08:57:08;11.05;;;3.28;;
75154;SDS011;63735;44.730;37.818;2023-05-15T08:59:35;15.13;;;4.55;;
75154;SDS011;63735;44.730;37.818;2023-05-15T09:02:02;12.77;;;4.15;;
75154;SDS011;63735;44.730;37.818;2023-05-15T09:04:28;6.68;;;2.20;;
75154;SDS011;63735;44.730;37.818;2023-05-15T09:06:53;10.80;;;4.57;;
75154;SDS011;63735;44.730;37.818;2023-05-15T09:09:21;8.52;;;4.03;;
75154;SDS011;63735;44.730;37.818;2023-05-15T09:11:48;6.60;;;3.25;;
75154;SDS011;63735;44.730;37.818;2023-05-15T09:14:15;5.70;;;3.17;;
75154;SDS011;63735;44.730;37.818;2023-05-15T09:16:41;5.55;;;3.22;;
75154;SDS011;63735;44.730;37.818;2023-05-15T09:19:07;7.43;;;3.40;;
75154;SDS011;63735;44.730;37.818;2023-05-15T09:21:34;11.32;;;5.20;;
75154;SDS011;63735;44.730;37.818;2023-05-15T09:27:07;7.13;;;3.70;;
75154;SDS011;63735;44.730;37.818;2023-05-15T09:29:34;7.53;;;2.72;;
75154;SDS011;63735;44.730;37.818;2023-05-15T09:32:02;9.40;;;4.35;;
75154;SDS011;63735;44.730;37.818;2023-05-15T09:34:33;9.05;;;3.42;;
75154;SDS011;63735;44.730;37.818;2023-05-15T09:37:04;3.70;;;2.38;;
75154;SDS011;63735;44.730;37.818;2023-05-15T09:39:32;11.40;;;3.83;;
75154;SDS011;63735;44.730;37.818;2023-05-15T09:42:05;9.48;;;3.33;;
75154;SDS011;63735;44.730;37.818;2023-05-15T09:44:39;5.38;;;3.60;;
75154;SDS011;63735;44.730;37.818;2023-05-15T09:47:10;4.50;;;3.30;;
75154;SDS011;63735;44.730;37.818;2023-05-15T09:49:37;15.02;;;4.43;;
75154;SDS011;63735;44.730;37.818;2023-05-15T09:52:07;17.88;;;3.75;;
75154;SDS011;63735;44.730;37.818;2023-05-15T09:54:36;10.30;;;4.13;;
75154;SDS011;63735;44.730;37.818;2023-05-15T09:57:06;5.00;;;2.70;;
75154;SDS011;63735;44.730;37.818;2023-05-15T09:59:34;6.13;;;3.30;;
75154;SDS011;63735;44.730;37.818;2023-05-15T10:01:59;6.78;;;2.97;;
75154;SDS011;63735;44.730;37.818;2023-05-15T10:04:25;6.47;;;3.55;;
75154;SDS011;63735;44.730;37.818;2023-05-15T10:06:51;10.48;;;3.40;;
75154;SDS011;63735;44.730;37.818;2023-05-15T10:09:17;4.63;;;3.10;;
75154;SDS011;63735;44.730;37.818;2023-05-15T10:11:46;5.00;;;2.88;;
75154;SDS011;63735;44.730;37.818;2023-05-15T10:14:17;5.22;;;2.90;;
75154;SDS011;63735;44.730;37.818;2023-05-15T10:16:44;4.80;;;2.85;;
75154;SDS011;63735;44.730;37.818;2023-05-15T10:19:10;7.60;;;4.72;;
75154;SDS011;63735;44.730;37.818;2023-05-15T10:21:38;9.93;;;4.35;;
75154;SDS011;63735;44.730;37.818;2023-05-15T10:24:05;16.27;;;4.20;;
75154;SDS011;63735;44.730;37.818;2023-05-15T10:29:09;5.78;;;2.83;;
75154;SDS011;63735;44.730;37.818;2023-05-15T10:31:36;7.80;;;2.88;;
75154;SDS011;63735;44.730;37.818;2023-05-15T10:34:04;5.10;;;2.58;;
75154;SDS011;63735;44.730;37.818;2023-05-15T10:36:31;1.75;;;1.42;;
75154;SDS011;63735;44.730;37.818;2023-05-15T10:38:58;6.70;;;2.80;;
75154;SDS011;63735;44.730;37.818;2023-05-15T10:41:25;7.18;;;2.50;;
75154;SDS011;63735;44.730;37.818;2023-05-15T10:43:54;8.95;;;3.83;;
75154;SDS011;63735;44.730;37.818;2023-05-15T10:46:22;9.68;;;3.10;;
75154;SDS011;63735;44.730;37.818;2023-05-15T10:48:48;4.13;;;2.00;;
75154;SDS011;63735;44.730;37.818;2023-05-15T10:51:16;5.63;;;2.33;;
75154;SDS011;63735;44.730;37.818;2023-05-15T10:53:48;7.07;;;1.50;;
75154;SDS011;63735;44.730;37.818;2023-05-15T10:56:14;5.93;;;1.63;;
75154;SDS011;63735;44.730;37.818;2023-05-15T10:58:46;8.02;;;2.42;;
75154;SDS011;63735;44.730;37.818;2023-05-15T11:01:32;7.32;;;2.03;;
75154;SDS011;63735;44.730;37.818;2023-05-15T11:04:12;6.97;;;2.55;;
75154;SDS011;63735;44.730;37.818;2023-05-15T11:06:44;5.22;;;3.00;;
75154;SDS011;63735;44.730;37.818;2023-05-15T11:11:52;10.82;;;2.80;;
75154;SDS011;63735;44.730;37.818;2023-05-15T11:14:37;4.38;;;2.55;;
75154;SDS011;63735;44.730;37.818;2023-05-15T11:17:06;8.65;;;2.55;;
75154;SDS011;63735;44.730;37.818;2023-05-15T11:19:34;2.65;;;2.03;;
75154;SDS011;63735;44.730;37.818;2023-05-15T11:27:23;2.10;;;1.52;;
75154;SDS011;63735;44.730;37.818;2023-05-15T11:40:22;5.97;;;2.25;;
75154;SDS011;63735;44.730;37.818;2023-05-15T11:42:59;15.50;;;3.00;;
75154;SDS011;63735;44.730;37.818;2023-05-15T11:45:29;11.30;;;2.58;;
75154;SDS011;63735;44.730;37.818;2023-05-15T11:48:00;6.35;;;2.80;;
75154;SDS011;63735;44.730;37.818;2023-05-15T11:50:29;7.32;;;3.17;;
75154;SDS011;63735;44.730;37.818;2023-05-15T11:52:57;3.63;;;2.13;;
75154;SDS011;63735;44.730;37.818;2023-05-15T11:55:23;4.85;;;2.17;;
75154;SDS011;63735;44.730;37.818;2023-05-15T12:00:15;5.47;;;2.45;;
75154;SDS011;63735;44.730;37.818;2023-05-15T12:02:41;7.93;;;1.80;;
75154;SDS011;63735;44.730;37.818;2023-05-15T12:05:07;7.65;;;2.78;;
75154;SDS011;63735;44.730;37.818;2023-05-15T12:07:40;9.98;;;2.90;;
75154;SDS011;63735;44.730;37.818;2023-05-15T12:10:10;5.25;;;2.40;;
75154;SDS011;63735;44.730;37.818;2023-05-15T12:12:38;10.68;;;3.55;;
75154;SDS011;63735;44.730;37.818;2023-05-15T12:15:08;16.65;;;2.85;;
75154;SDS011;63735;44.730;37.818;2023-05-15T12:17:36;7.75;;;2.13;;
75154;SDS011;63735;44.730;37.818;2023-05-15T12:20:18;12.52;;;2.70;;
75154;SDS011;63735;44.730;37.818;2023-05-15T12:22:44;4.80;;;2.30;;
75154;SDS011;63735;44.730;37.818;2023-05-15T12:25:10;3.90;;;2.35;;
75154;SDS011;63735;44.730;37.818;2023-05-15T12:30:03;8.15;;;2.17;;
75154;SDS011;63735;44.730;37.818;2023-05-15T12:32:31;4.47;;;2.10;;
75154;SDS011;63735;44.730;37.818;2023-05-15T12:34:59;9.73;;;1.95;;
75154;SDS011;63735;44.730;37.818;2023-05-15T12:39:53;10.00;;;3.05;;
75154;SDS011;63735;44.730;37.818;2023-05-15T12:42:20;8.35;;;2.65;;
75154;SDS011;63735;44.730;37.818;2023-05-15T12:44:53;4.35;;;2.50;;
75154;SDS011;63735;44.730;37.818;2023-05-15T12:47:21;9.43;;;2.10;;
75154;SDS011;63735;44.730;37.818;2023-05-15T12:49:57;7.80;;;2.53;;
75154;SDS011;63735;44.730;37.818;2023-05-15T12:52:26;2.70;;;1.08;;
75154;SDS011;63735;44.730;37.818;2023-05-15T12:54:53;7.30;;;1.95;;
75154;SDS011;63735;44.730;37.818;2023-05-15T12:57:19;7.70;;;2.45;;
75154;SDS011;63735;44.730;37.818;2023-05-15T12:59:45;8.55;;;2.15;;
75154;SDS011;63735;44.730;37.818;2023-05-15T13:02:11;3.70;;;2.17;;
75154;SDS011;63735;44.730;37.818;2023-05-15T13:04:38;10.35;;;2.42;;
75154;SDS011;63735;44.730;37.818;2023-05-15T13:07:04;12.60;;;2.22;;
75154;SDS011;63735;44.730;37.818;2023-05-15T13:09:30;6.90;;;2.40;;
75154;SDS011;63735;44.730;37.818;2023-05-15T13:14:26;4.35;;;2.30;;
75154;SDS011;63735;44.730;37.818;2023-05-15T13:16:57;19.92;;;2.45;;
75154;SDS011;63735;44.730;37.818;2023-05-15T13:19:26;9.77;;;3.28;;
75154;SDS011;63735;44.730;37.818;2023-05-15T13:21:51;11.18;;;3.35;;
75154;SDS011;63735;44.730;37.818;2023-05-15T13:24:18;10.50;;;3.90;;
75154;SDS011;63735;44.730;37.818;2023-05-15T13:26:44;12.25;;;3.42;;
75154;SDS011;63735;44.730;37.818;2023-05-15T13:29:10;11.85;;;3.75;;
75154;SDS011;63735;44.730;37.818;2023-05-15T13:31:36;9.77;;;3.78;;
75154;SDS011;63735;44.730;37.818;2023-05-15T13:34:02;7.93;;;3.17;;
75154;SDS011;63735;44.730;37.818;2023-05-15T13:36:28;7.05;;;3.28;;
75154;SDS011;63735;44.730;37.818;2023-05-15T13:38:54;9.60;;;2.38;;
75154;SDS011;63735;44.730;37.818;2023-05-15T13:41:20;12.35;;;3.13;;
75154;SDS011;63735;44.730;37.818;2023-05-15T13:43:46;9.00;;;3.58;;
75154;SDS011;63735;44.730;37.818;2023-05-15T13:46:13;4.47;;;1.88;;
75154;SDS011;63735;44.730;37.818;2023-05-15T13:48:39;6.63;;;3.35;;
75154;SDS011;63735;44.730;37.818;2023-05-15T13:51:05;7.30;;;3.05;;
75154;SDS011;63735;44.730;37.818;2023-05-15T13:53:31;19.38;;;3.47;;
75154;SDS011;63735;44.730;37.818;2023-05-15T13:55:57;5.78;;;2.60;;
75154;SDS011;63735;44.730;37.818;2023-05-15T13:58:23;13.13;;;3.47;;
75154;SDS011;63735;44.730;37.818;2023-05-15T14:00:50;7.60;;;1.90;;
75154;SDS011;63735;44.730;37.818;2023-05-15T14:03:16;5.55;;;3.67;;
75154;SDS011;63735;44.730;37.818;2023-05-15T14:05:42;4.43;;;2.10;;
75154;SDS011;63735;44.730;37.818;2023-05-15T14:08:08;3.00;;;1.55;;
75154;SDS011;63735;44.730;37.818;2023-05-15T14:10:35;9.63;;;2.20;;
75154;SDS011;63735;44.730;37.818;2023-05-15T14:13:01;11.27;;;2.17;;
75154;SDS011;63735;44.730;37.818;2023-05-15T14:15:27;3.20;;;2.20;;
75154;SDS011;63735;44.730;37.818;2023-05-15T14:17:53;5.30;;;1.77;;
75154;SDS011;63735;44.730;37.818;2023-05-15T14:20:19;3.97;;;1.67;;
75154;SDS011;63735;44.730;37.818;2023-05-15T14:22:45;3.55;;;1.73;;
75154;SDS011;63735;44.730;37.818;2023-05-15T14:25:11;6.25;;;2.05;;
75154;SDS011;63735;44.730;37.818;2023-05-15T14:27:37;4.78;;;1.58;;
75154;SDS011;63735;44.730;37.818;2023-05-15T14:30:03;3.35;;;2.22;;
75154;SDS011;63735;44.730;37.818;2023-05-15T14:32:30;2.05;;;1.23;;
75154;SDS011;63735;44.730;37.818;2023-05-15T14:34:55;1.92;;;1.38;;
75154;SDS011;63735;44.730;37.818;2023-05-15T14:37:24;6.20;;;1.92;;
75154;SDS011;63735;44.730;37.818;2023-05-15T14:39:51;7.93;;;2.55;;
75154;SDS011;63735;44.730;37.818;2023-05-15T14:42:19;6.78;;;2.13;;
75154;SDS011;63735;44.730;37.818;2023-05-15T14:44:45;5.97;;;1.63;;
75154;SDS011;63735;44.730;37.818;2023-05-15T14:47:11;1.58;;;0.98;;
75154;SDS011;63735;44.730;37.818;2023-05-15T14:49:37;5.80;;;1.98;;
75154;SDS011;63735;44.730;37.818;2023-05-15T14:52:05;6.13;;;2.33;;
75154;SDS011;63735;44.730;37.818;2023-05-15T14:54:32;9.52;;;5.20;;
75154;SDS011;63735;44.730;37.818;2023-05-15T14:57:00;5.20;;;2.95;;
75154;SDS011;63735;44.730;37.818;2023-05-15T14:59:26;5.55;;;2.13;;
75154;SDS011;63735;44.730;37.818;2023-05-15T15:01:53;3.00;;;1.02;;
75154;SDS011;63735;44.730;37.818;2023-05-15T15:04:19;3.33;;;1.77;;
75154;SDS011;63735;44.730;37.818;2023-05-15T15:06:47;6.38;;;1.85;;
75154;SDS011;63735;44.730;37.818;2023-05-15T15:09:13;7.22;;;2.28;;
75154;SDS011;63735;44.730;37.818;2023-05-15T15:11:40;4.03;;;2.10;;
75154;SDS011;63735;44.730;37.818;2023-05-15T15:14:06;7.68;;;2.47;;
75154;SDS011;63735;44.730;37.818;2023-05-15T15:16:32;4.93;;;2.13;;
75154;SDS011;63735;44.730;37.818;2023-05-15T15:18:58;2.85;;;2.15;;
75154;SDS011;63735;44.730;37.818;2023-05-15T15:21:23;2.08;;;1.52;;
75154;SDS011;63735;44.730;37.818;2023-05-15T15:23:49;2.28;;;1.63;;
75154;SDS011;63735;44.730;37.818;2023-05-15T15:26:15;2.13;;;1.50;;
75154;SDS011;63735;44.730;37.818;2023-05-15T15:28:42;10.70;;;2.38;;